Time;durP1;ratioP1;P1;durP2;ratioP2;P2;SDS_P1;SDS_P2;PMS_P1;PMS_P2;Temp;Humidity;BMP_temperature;BMP_pressure;BME280_temperature;BME280_humidity;BME280_pressure;Samples;Min_cycle;Max_cycle;Signal;HPM_P1;HPM_P2
2023/04/22 00:00:00;;;;;;;0.10;0.10;;;10.20;99.90;;;;;;5063866;28;20612;-82
2023/04/22 00:02:26;;;;;;;0.10;0.10;;;10.30;99.90;;;;;;5063049;28;20227;-82
2023/04/22 00:04:51;;;;;;;0.10;0.10;;;10.20;99.90;;;;;;5063690;28;20658;-81
2023/04/22 00:07:17;;;;;;;0.10;0.10;;;10.30;99.90;;;;;;5066427;28;20211;-82
2023/04/22 00:09:43;;;;;;;0.10;0.10;;;10.20;99.90;;;;;;5065072;28;20286;-82
2023/04/22 00:12:10;;;;;;;0.10;0.10;;;10.20;99.90;;;;;;5062830;28;20193;-82
2023/04/22 00:14:36;;;;;;;0.10;0.10;;;10.20;99.90;;;;;;5067614;28;20181;-81
2023/04/22 00:17:02;;;;;;;0.10;0.10;;;10.10;99.90;;;;;;5061666;28;20213;-81
2023/04/22 00:19:28;;;;;;;0.10;0.10;;;10.20;99.90;;;;;;5067922;28;20188;-82
2023/04/22 00:21:53;;;;;;;0.10;0.10;;;10.30;99.90;;;;;;5065518;28;20216;-81
2023/04/22 00:24:19;;;;;;;0.10;0.10;;;10.40;99.90;;;;;;5066667;28;20192;-82
2023/04/22 00:26:44;;;;;;;0.10;0.10;;;10.50;99.90;;;;;;5067459;28;20213;-81
2023/04/22 00:29:10;;;;;;;0.10;0.10;;;10.50;99.90;;;;;;5067723;28;20216;-82
2023/04/22 00:31:35;;;;;;;0.10;0.10;;;10.60;99.90;;;;;;5064289;28;20223;-82
2023/04/22 00:34:01;;;;;;;0.10;0.10;;;10.70;99.90;;;;;;5065765;28;20196;-81
2023/04/22 00:36:26;;;;;;;0.10;0.10;;;10.60;99.90;;;;;;5068125;28;20314;-80
2023/04/22 00:38:52;;;;;;;0.10;0.10;;;10.50;99.90;;;;;;5065699;28;20189;-82
2023/04/22 00:41:19;;;;;;;0.00;0.00;;;10.40;99.90;;;;;;5067631;28;20236;-81
2023/04/22 00:43:45;;;;;;;0.10;0.10;;;10.40;99.90;;;;;;5060502;28;21010;-82
2023/04/22 00:46:11;;;;;;;0.10;0.10;;;10.40;99.90;;;;;;5065594;28;20613;-81
2023/04/22 00:48:37;;;;;;;0.10;0.10;;;10.60;99.90;;;;;;5064992;28;20187;-81
2023/04/22 00:51:03;;;;;;;0.10;0.10;;;10.60;99.90;;;;;;5063989;28;20189;-82
2023/04/22 00:53:28;;;;;;;0.10;0.10;;;10.70;99.90;;;;;;5064543;28;20564;-81
2023/04/22 00:55:54;;;;;;;0.10;0.10;;;10.70;99.90;;;;;;5061616;28;20258;-82
2023/04/22 00:58:23;;;;;;;0.10;0.10;;;10.70;99.90;;;;;;5066859;28;20190;-81
2023/04/22 01:00:50;;;;;;;0.10;0.10;;;10.70;99.90;;;;;;5066347;28;20208;-80
2023/04/22 01:03:15;;;;;;;0.10;0.10;;;10.70;99.90;;;;;;5062742;28;20776;-81
2023/04/22 01:05:42;;;;;;;0.10;0.10;;;10.70;99.90;;;;;;5067439;28;20209;-81
2023/04/22 01:08:07;;;;;;;0.10;0.10;;;10.80;99.90;;;;;;5065218;28;20828;-81
2023/04/22 01:10:33;;;;;;;0.10;0.10;;;10.90;99.90;;;;;;5064522;28;20272;-81
2023/04/22 01:12:58;;;;;;;0.10;0.10;;;11.00;99.90;;;;;;5065678;28;20192;-81
2023/04/22 01:15:24;;;;;;;0.10;0.10;;;11.10;99.90;;;;;;5065443;28;20190;-81
2023/04/22 01:17:51;;;;;;;0.10;0.10;;;11.10;99.90;;;;;;5065720;28;20189;-81
2023/04/22 01:20:18;;;;;;;0.10;0.10;;;11.10;99.90;;;;;;5063902;28;20196;-81
2023/04/22 01:22:45;;;;;;;0.10;0.10;;;11.00;99.90;;;;;;5066316;28;20185;-81
2023/04/22 01:25:11;;;;;;;0.00;0.00;;;11.00;99.90;;;;;;5065967;28;21162;-81
2023/04/22 01:27:38;;;;;;;0.10;0.10;;;10.90;99.90;;;;;;5061336;28;20258;-81
2023/04/22 01:30:06;;;;;;;0.10;0.10;;;10.90;99.90;;;;;;5061212;28;20215;-82
2023/04/22 01:32:32;;;;;;;0.10;0.10;;;10.90;99.90;;;;;;5062984;28;20258;-82
2023/04/22 01:34:58;;;;;;;0.10;0.10;;;10.90;99.90;;;;;;5066755;28;20185;-81
2023/04/22 01:37:23;;;;;;;0.10;0.10;;;10.90;99.90;;;;;;5067170;28;20250;-81
2023/04/22 01:39:49;;;;;;;0.10;0.10;;;10.90;99.90;;;;;;5064737;28;20185;-81
2023/04/22 01:42:15;;;;;;;0.10;0.10;;;11.10;99.90;;;;;;5062822;28;20218;-80
2023/04/22 01:44:40;;;;;;;0.10;0.10;;;11.10;99.90;;;;;;5063440;28;20209;-81
2023/04/22 01:47:06;;;;;;;0.10;0.10;;;11.20;99.90;;;;;;5060327;28;20213;-80
2023/04/22 01:49:32;;;;;;;0.10;0.10;;;11.20;99.90;;;;;;5063313;28;20191;-81
2023/04/22 01:51:58;;;;;;;0.10;0.10;;;11.10;99.90;;;;;;5061279;28;20606;-80
2023/04/22 01:54:23;;;;;;;0.10;0.10;;;11.10;99.90;;;;;;5066216;28;20281;-80
2023/04/22 01:56:51;;;;;;;0.10;0.10;;;11.10;99.90;;;;;;5066912;28;20304;-80
2023/04/22 01:59:17;;;;;;;0.10;0.10;;;11.10;99.90;;;;;;5063254;28;20190;-81
2023/04/22 02:01:42;;;;;;;0.10;0.10;;;11.10;99.90;;;;;;5061386;28;20196;-81
2023/04/22 02:04:08;;;;;;;0.10;0.10;;;11.00;99.90;;;;;;5065866;28;20223;-80
2023/04/22 02:06:33;;;;;;;0.10;0.10;;;11.10;99.90;;;;;;5064264;28;20204;-81
2023/04/22 02:08:59;;;;;;;0.10;0.10;;;11.00;99.90;;;;;;5066823;28;20189;-81
2023/04/22 02:11:24;;;;;;;0.10;0.10;;;11.10;99.90;;;;;;5058868;28;20189;-80
2023/04/22 02:13:50;;;;;;;0.10;0.10;;;11.10;99.90;;;;;;5060089;28;20553;-81
2023/04/22 02:16:15;;;;;;;0.10;0.10;;;11.20;99.90;;;;;;5060470;28;20279;-81
2023/04/22 02:18:41;;;;;;;0.10;0.10;;;11.30;99.90;;;;;;5063180;28;20252;-81
2023/04/22 02:21:07;;;;;;;0.00;0.00;;;11.20;99.90;;;;;;5062532;28;21477;-81
2023/04/22 02:23:33;;;;;;;0.10;0.10;;;11.10;99.90;;;;;;5064306;28;20717;-81
2023/04/22 02:25:58;;;;;;;0.10;0.10;;;11.00;99.90;;;;;;5064298;28;20204;-80
2023/04/22 02:28:24;;;;;;;0.10;0.10;;;10.90;99.90;;;;;;5060775;28;20303;-82
2023/04/22 02:30:49;;;;;;;0.10;0.10;;;10.90;99.90;;;;;;5065243;28;20669;-80
2023/04/22 02:33:15;;;;;;;0.10;0.10;;;10.90;99.90;;;;;;5060336;28;20772;-81
2023/04/22 02:35:40;;;;;;;0.10;0.10;;;10.90;99.90;;;;;;5057211;28;20251;-81
2023/04/22 02:38:06;;;;;;;0.10;0.10;;;11.00;99.90;;;;;;5060480;28;20681;-81
2023/04/22 02:40:31;;;;;;;0.10;0.10;;;11.10;99.90;;;;;;5058639;28;20200;-81
2023/04/22 02:42:57;;;;;;;0.10;0.10;;;11.30;99.90;;;;;;5064097;28;20196;-82
2023/04/22 02:45:22;;;;;;;0.10;0.10;;;11.30;99.90;;;;;;5064363;28;20185;-81
2023/04/22 02:47:48;;;;;;;0.10;0.10;;;11.40;99.90;;;;;;5064269;28;20177;-81
2023/04/22 02:50:13;;;;;;;0.10;0.10;;;11.30;99.90;;;;;;5058581;28;20197;-81
2023/04/22 02:52:39;;;;;;;0.10;0.10;;;11.20;99.90;;;;;;5059059;28;20184;-81
2023/04/22 02:55:05;;;;;;;0.10;0.10;;;11.10;99.90;;;;;;5059804;28;20933;-81
2023/04/22 02:57:30;;;;;;;0.10;0.10;;;11.00;99.90;;;;;;5064003;28;20200;-81
2023/04/22 02:59:56;;;;;;;0.10;0.10;;;11.00;99.90;;;;;;5061314;28;20188;-81
2023/04/22 03:02:22;;;;;;;0.10;0.10;;;11.00;99.90;;;;;;5060007;28;20243;-81
2023/04/22 03:04:47;;;;;;;0.10;0.10;;;11.10;99.90;;;;;;5064492;28;20536;-81
2023/04/22 03:07:13;;;;;;;0.10;0.10;;;11.10;99.90;;;;;;5060892;28;20204;-81
2023/04/22 03:09:38;;;;;;;0.10;0.10;;;11.20;99.90;;;;;;5059738;28;20185;-81
2023/04/22 03:12:04;;;;;;;0.10;0.10;;;11.30;99.90;;;;;;5059840;28;20185;-82
2023/04/22 03:14:29;;;;;;;0.10;0.10;;;11.20;99.90;;;;;;5061954;28;20284;-82
2023/04/22 03:16:55;;;;;;;0.10;0.10;;;11.20;99.90;;;;;;5062502;28;20212;-81
2023/04/22 03:19:21;;;;;;;0.10;0.10;;;11.00;99.90;;;;;;5060273;28;20185;-82
2023/04/22 03:21:46;;;;;;;0.10;0.10;;;10.90;99.90;;;;;;5063166;28;20215;-81
2023/04/22 03:24:11;;;;;;;0.10;0.10;;;10.90;99.90;;;;;;5058957;28;20659;-81
2023/04/22 03:26:37;;;;;;;0.10;0.10;;;11.10;99.90;;;;;;5059965;28;20209;-82
2023/04/22 03:29:02;;;;;;;0.10;0.10;;;11.10;99.90;;;;;;5060129;28;20236;-82
2023/04/22 03:31:28;;;;;;;0.10;0.10;;;11.10;99.90;;;;;;5060976;28;20236;-81
2023/04/22 03:33:53;;;;;;;0.10;0.10;;;11.10;99.90;;;;;;5062666;28;20684;-81
2023/04/22 03:36:20;;;;;;;0.10;0.10;;;11.20;99.90;;;;;;5058807;28;20699;-82
2023/04/22 03:38:45;;;;;;;0.10;0.10;;;11.20;99.90;;;;;;5057338;28;21372;-81
2023/04/22 03:41:11;;;;;;;0.10;0.10;;;11.00;99.90;;;;;;5061811;28;20208;-82
2023/04/22 03:43:36;;;;;;;0.10;0.10;;;11.00;99.90;;;;;;5056833;28;20177;-82
2023/04/22 03:46:02;;;;;;;0.10;0.10;;;11.10;99.90;;;;;;5061741;28;20236;-82
2023/04/22 03:48:28;;;;;;;0.10;0.10;;;11.10;99.90;;;;;;5059276;28;20177;-82
2023/04/22 03:50:54;;;;;;;0.10;0.10;;;11.10;99.90;;;;;;5063057;28;20185;-82
2023/04/22 03:53:19;;;;;;;0.10;0.10;;;11.10;99.90;;;;;;5059799;28;20182;-82
2023/04/22 03:55:45;;;;;;;0.10;0.10;;;11.10;99.90;;;;;;5059838;28;20218;-81
2023/04/22 03:58:11;;;;;;;0.10;0.10;;;11.20;99.90;;;;;;5057520;28;20185;-81
2023/04/22 04:00:36;;;;;;;0.10;0.10;;;11.10;99.90;;;;;;5060014;28;20201;-81
2023/04/22 04:03:02;;;;;;;0.10;0.10;;;11.00;99.90;;;;;;5057767;28;20686;-82
2023/04/22 04:05:27;;;;;;;0.10;0.10;;;11.10;99.90;;;;;;5058462;28;20296;-81
2023/04/22 04:07:53;;;;;;;0.10;0.10;;;11.10;99.90;;;;;;5059621;28;20242;-81
2023/04/22 04:10:18;;;;;;;0.10;0.10;;;11.20;99.90;;;;;;5063625;28;20189;-81
2023/04/22 04:12:44;;;;;;;0.10;0.10;;;11.20;99.90;;;;;;5055652;28;20237;-81
2023/04/22 04:15:10;;;;;;;0.10;0.10;;;11.20;99.90;;;;;;5062974;28;20190;-82
2023/04/22 04:17:36;;;;;;;0.10;0.10;;;11.00;99.90;;;;;;5060156;28;20200;-81
2023/04/22 04:20:01;;;;;;;0.10;0.10;;;10.90;99.90;;;;;;5060641;28;20189;-80
2023/04/22 04:22:28;;;;;;;0.10;0.10;;;10.60;99.90;;;;;;5062775;28;20231;-82
2023/04/22 04:24:54;;;;;;;0.10;0.10;;;10.50;99.90;;;;;;5059423;28;20185;-82
2023/04/22 04:27:22;;;;;;;0.10;0.10;;;10.40;99.90;;;;;;5054731;28;20196;-82
2023/04/22 04:29:48;;;;;;;0.10;0.10;;;10.30;99.90;;;;;;5061084;28;20176;-81
2023/04/22 04:32:14;;;;;;;0.10;0.10;;;10.30;99.90;;;;;;5060794;28;20621;-80
2023/04/22 04:34:41;;;;;;;0.10;0.10;;;10.40;99.90;;;;;;5059867;28;20181;-82
2023/04/22 04:37:06;;;;;;;0.10;0.10;;;10.50;99.90;;;;;;5066291;28;20197;-81
2023/04/22 04:39:32;;;;;;;0.10;0.10;;;10.70;99.90;;;;;;5061448;28;20281;-81
2023/04/22 04:41:59;;;;;;;0.10;0.10;;;10.80;99.90;;;;;;5058610;28;20215;-82
2023/04/22 04:44:30;;;;;;;0.10;0.10;;;10.90;99.90;;;;;;5064701;28;20358;-82
2023/04/22 04:46:56;;;;;;;0.10;0.10;;;11.00;99.90;;;;;;5061941;28;20281;-82
2023/04/22 04:49:22;;;;;;;0.10;0.10;;;10.90;99.90;;;;;;5063842;28;20174;-82
2023/04/22 04:51:48;;;;;;;0.10;0.10;;;10.70;99.90;;;;;;5066342;28;20192;-80
2023/04/22 04:54:14;;;;;;;0.10;0.10;;;10.60;99.90;;;;;;5063983;28;20185;-81
2023/04/22 04:56:39;;;;;;;0.10;0.10;;;10.50;99.90;;;;;;5060653;28;20216;-81
2023/04/22 04:59:05;;;;;;;0.10;0.10;;;10.50;99.90;;;;;;5061743;28;21037;-80
2023/04/22 05:01:30;;;;;;;0.10;0.10;;;10.60;99.90;;;;;;5060057;28;20193;-81
2023/04/22 05:03:56;;;;;;;0.10;0.10;;;10.70;99.90;;;;;;5063948;28;20204;-81
2023/04/22 05:06:21;;;;;;;0.10;0.10;;;10.60;99.90;;;;;;5062275;28;20243;-82
2023/04/22 05:08:47;;;;;;;0.10;0.10;;;10.30;99.90;;;;;;5059779;28;20266;-85
2023/04/22 05:11:12;;;;;;;0.10;0.10;;;10.30;99.90;;;;;;5060722;28;20238;-84
2023/04/22 05:13:38;;;;;;;0.10;0.10;;;10.30;99.90;;;;;;5059677;28;20274;-83
2023/04/22 05:16:04;;;;;;;0.10;0.10;;;10.40;99.90;;;;;;5060705;28;20239;-82
2023/04/22 05:18:30;;;;;;;0.10;0.10;;;10.60;99.90;;;;;;5061316;28;20334;-83
2023/04/22 05:20:58;;;;;;;0.10;0.10;;;10.80;99.90;;;;;;5064529;28;20751;-82
2023/04/22 05:23:23;;;;;;;0.10;0.10;;;11.00;99.90;;;;;;5062840;28;20217;-82
2023/04/22 05:25:49;;;;;;;0.10;0.10;;;11.10;99.90;;;;;;5061219;28;20236;-82
2023/04/22 05:28:15;;;;;;;0.10;0.10;;;11.20;99.90;;;;;;5060650;28;20215;-82
2023/04/22 05:30:41;;;;;;;0.10;0.10;;;11.20;99.90;;;;;;5060996;28;20216;-82
2023/04/22 05:33:07;;;;;;;0.10;0.10;;;11.30;99.90;;;;;;5060316;28;20185;-82
2023/04/22 05:35:34;;;;;;;0.10;0.10;;;11.30;99.90;;;;;;5058999;28;21145;-82
2023/04/22 05:38:01;;;;;;;0.07;0.07;;;11.30;99.90;;;;;;5058345;28;20181;-81
2023/04/22 05:40:27;;;;;;;0.10;0.10;;;11.40;99.90;;;;;;5059274;28;20210;-82
2023/04/22 05:42:54;;;;;;;0.10;0.10;;;11.50;99.90;;;;;;5063549;28;20206;-82
2023/04/22 05:45:19;;;;;;;0.10;0.10;;;11.60;99.90;;;;;;5059458;28;20705;-82
2023/04/22 05:47:45;;;;;;;0.10;0.10;;;11.80;99.90;;;;;;5062303;28;20208;-82
2023/04/22 05:50:10;;;;;;;0.10;0.10;;;11.80;99.90;;;;;;5063556;28;20188;-81
2023/04/22 05:52:36;;;;;;;0.10;0.10;;;11.70;99.90;;;;;;5065499;28;20196;-82
2023/04/22 05:55:01;;;;;;;0.10;0.10;;;11.90;99.90;;;;;;5060385;28;20177;-81
2023/04/22 05:57:27;;;;;;;0.10;0.10;;;12.10;99.90;;;;;;5061090;28;20565;-82
2023/04/22 05:59:52;;;;;;;0.10;0.10;;;12.30;99.90;;;;;;5061015;28;20719;-81
2023/04/22 06:02:18;;;;;;;0.10;0.10;;;12.40;99.90;;;;;;5065451;28;20301;-82
2023/04/22 06:04:43;;;;;;;0.10;0.10;;;12.50;99.90;;;;;;5065142;28;20193;-82
2023/04/22 06:07:09;;;;;;;0.10;0.10;;;12.70;99.90;;;;;;5063366;28;20259;-82
2023/04/22 06:09:35;;;;;;;0.10;0.10;;;12.90;99.90;;;;;;5061393;28;20318;-81
2023/04/22 06:12:01;;;;;;;0.07;0.07;;;12.90;99.90;;;;;;5079557;28;20220;-82
2023/04/22 06:14:26;;;;;;;0.10;0.10;;;12.90;99.90;;;;;;5061267;28;20192;-82
2023/04/22 06:16:54;;;;;;;0.00;0.00;;;12.70;99.90;;;;;;5064140;28;20297;-82
2023/04/22 06:19:20;;;;;;;0.10;0.10;;;12.70;99.90;;;;;;5062552;28;20173;-82
2023/04/22 06:21:45;;;;;;;0.10;0.10;;;12.50;99.90;;;;;;5062680;28;20735;-82
2023/04/22 06:24:11;;;;;;;0.10;0.10;;;12.40;99.90;;;;;;5057672;28;20246;-82
2023/04/22 06:26:37;;;;;;;0.10;0.10;;;12.50;99.90;;;;;;5064498;28;20220;-82
2023/04/22 06:29:04;;;;;;;0.10;0.10;;;12.80;99.90;;;;;;5059501;28;20572;-82
2023/04/22 06:31:30;;;;;;;0.10;0.10;;;13.00;99.90;;;;;;5059399;28;20192;-80
2023/04/22 06:33:56;;;;;;;0.10;0.10;;;13.20;99.90;;;;;;5061532;28;20263;-83
2023/04/22 06:36:21;;;;;;;0.10;0.10;;;13.30;99.90;;;;;;5061457;28;20349;-82
2023/04/22 06:38:47;;;;;;;0.10;0.10;;;13.30;99.90;;;;;;5061159;28;20180;-82
2023/04/22 06:41:12;;;;;;;0.10;0.10;;;13.40;99.90;;;;;;5062082;28;20225;-81
2023/04/22 06:43:38;;;;;;;0.10;0.10;;;13.60;99.90;;;;;;5062660;28;20201;-82
2023/04/22 06:46:04;;;;;;;0.10;0.10;;;13.80;99.90;;;;;;5060258;28;20762;-83
2023/04/22 06:48:29;;;;;;;0.10;0.10;;;14.00;99.90;;;;;;5057129;28;20187;-82
2023/04/22 06:50:56;;;;;;;0.10;0.10;;;14.20;99.90;;;;;;5053347;28;20920;-82
2023/04/22 06:53:22;;;;;;;0.10;0.10;;;14.40;99.90;;;;;;5061666;28;20661;-82
2023/04/22 06:55:47;;;;;;;0.10;0.10;;;14.40;99.90;;;;;;5059714;28;20226;-82
2023/04/22 06:58:13;;;;;;;0.10;0.10;;;14.70;99.90;;;;;;5054775;28;20199;-82
2023/04/22 07:00:38;;;;;;;0.10;0.10;;;15.00;99.90;;;;;;5058545;28;20213;-82
2023/04/22 07:03:04;;;;;;;0.10;0.10;;;15.20;99.90;;;;;;5059386;28;20201;-82
2023/04/22 07:05:30;;;;;;;0.10;0.10;;;15.40;99.90;;;;;;5059790;28;20204;-83
2023/04/22 07:07:56;;;;;;;0.10;0.10;;;15.60;99.90;;;;;;5057736;28;20249;-82
2023/04/22 07:10:22;;;;;;;0.10;0.10;;;15.80;99.90;;;;;;5061627;28;20531;-82
2023/04/22 07:12:47;;;;;;;0.10;0.10;;;15.90;99.90;;;;;;5057027;28;20185;-82
2023/04/22 07:15:13;;;;;;;0.10;0.10;;;15.60;99.90;;;;;;5057760;28;20195;-82
2023/04/22 07:17:38;;;;;;;0.10;0.10;;;15.60;99.90;;;;;;5060624;28;20192;-86
2023/04/22 07:20:05;;;;;;;0.10;0.10;;;16.00;99.90;;;;;;5055465;28;20227;-83
2023/04/22 07:22:30;;;;;;;0.10;0.10;;;16.30;99.90;;;;;;5058463;28;20216;-83
2023/04/22 07:24:56;;;;;;;0.10;0.10;;;16.50;99.90;;;;;;5062140;28;20204;-83
2023/04/22 07:27:21;;;;;;;0.10;0.10;;;16.70;99.90;;;;;;5059129;28;20319;-82
2023/04/22 07:29:47;;;;;;;0.07;0.07;;;16.80;99.90;;;;;;5060948;28;20173;-81
2023/04/22 07:32:12;;;;;;;0.10;0.10;;;17.00;99.90;;;;;;5059503;28;20193;-83
2023/04/22 07:34:38;;;;;;;0.10;0.10;;;17.00;99.90;;;;;;5058312;28;20675;-82
2023/04/22 07:37:05;;;;;;;0.10;0.10;;;16.10;99.90;;;;;;5062306;28;20200;-83
2023/04/22 07:39:31;;;;;;;0.10;0.10;;;15.60;99.90;;;;;;5059735;28;20214;-82
2023/04/22 07:41:57;;;;;;;0.10;0.10;;;15.70;99.90;;;;;;5059719;28;20209;-81
2023/04/22 07:44:22;;;;;;;0.10;0.10;;;15.40;99.90;;;;;;5057231;28;20185;-83
2023/04/22 07:46:49;;;;;;;0.10;0.10;;;15.50;99.90;;;;;;5059588;28;20575;-83
2023/04/22 07:49:15;;;;;;;0.10;0.10;;;15.80;99.90;;;;;;5060932;28;20177;-82
2023/04/22 07:51:42;;;;;;;0.10;0.10;;;16.30;99.90;;;;;;5061139;28;20184;-82
2023/04/22 07:54:07;;;;;;;0.10;0.10;;;16.70;99.90;;;;;;5056835;28;20192;-82
2023/04/22 07:56:33;;;;;;;0.10;0.10;;;17.10;99.90;;;;;;5056539;28;20196;-82
2023/04/22 07:58:59;;;;;;;0.10;0.10;;;17.40;99.90;;;;;;5059655;28;20197;-82
2023/04/22 08:01:24;;;;;;;0.10;0.10;;;17.30;99.90;;;;;;5061392;28;20208;-83
2023/04/22 08:03:50;;;;;;;0.10;0.10;;;17.80;99.90;;;;;;5062270;28;20208;-83
2023/04/22 08:06:16;;;;;;;0.10;0.10;;;18.00;99.90;;;;;;5060740;28;20236;-83
2023/04/22 08:08:41;;;;;;;0.10;0.10;;;18.20;99.90;;;;;;5060644;28;20216;-83
2023/04/22 08:11:07;;;;;;;0.10;0.10;;;18.20;99.90;;;;;;5057812;28;20257;-82
2023/04/22 08:13:32;;;;;;;0.10;0.10;;;18.40;99.90;;;;;;5067193;28;20185;-82
2023/04/22 08:16:02;;;;;;;0.10;0.10;;;18.50;99.90;;;;;;5064748;28;20208;-83
2023/04/22 08:18:28;;;;;;;0.10;0.10;;;18.50;99.90;;;;;;5065839;28;20200;-82
2023/04/22 08:20:54;;;;;;;0.10;0.10;;;18.50;99.90;;;;;;5059582;28;20688;-83
2023/04/22 08:23:20;;;;;;;0.10;0.10;;;18.50;99.90;;;;;;5062388;28;20205;-82
2023/04/22 08:25:46;;;;;;;0.10;0.10;;;18.60;99.90;;;;;;5065518;28;20740;-83
2023/04/22 08:28:11;;;;;;;0.10;0.10;;;18.80;99.90;;;;;;5063824;28;20177;-83
2023/04/22 08:30:37;;;;;;;0.10;0.10;;;18.80;99.90;;;;;;5064848;28;20550;-82
2023/04/22 08:33:02;;;;;;;0.10;0.10;;;19.00;99.90;;;;;;5061946;28;20185;-82
2023/04/22 08:35:28;;;;;;;0.10;0.10;;;19.30;99.90;;;;;;5064976;28;20177;-83
2023/04/22 08:37:54;;;;;;;0.10;0.10;;;19.40;99.90;;;;;;5061695;28;20310;-82
2023/04/22 08:40:20;;;;;;;0.10;0.10;;;19.40;99.90;;;;;;5060835;28;20278;-83
2023/04/22 08:42:46;;;;;;;0.10;0.10;;;19.60;99.90;;;;;;5063783;28;20177;-82
2023/04/22 08:45:12;;;;;;;0.10;0.10;;;19.60;99.90;;;;;;5066725;28;20260;-82
2023/04/22 08:47:38;;;;;;;0.10;0.10;;;19.90;99.90;;;;;;5065582;28;20248;-82
2023/04/22 08:50:05;;;;;;;0.10;0.10;;;20.10;99.90;;;;;;5064994;28;20196;-83
2023/04/22 08:52:31;;;;;;;0.10;0.10;;;20.20;99.90;;;;;;5062328;28;20234;-83
2023/04/22 08:54:57;;;;;;;0.10;0.10;;;20.20;99.90;;;;;;5065934;28;20177;-83
2023/04/22 08:57:23;;;;;;;0.10;0.10;;;20.30;99.90;;;;;;5064478;28;20274;-83
2023/04/22 08:59:50;;;;;;;0.10;0.10;;;20.40;99.90;;;;;;5065369;28;20208;-83
2023/04/22 09:02:19;;;;;;;0.10;0.10;;;20.50;99.90;;;;;;5063035;28;20209;-83
2023/04/22 09:04:50;;;;;;;0.10;0.10;;;20.60;99.90;;;;;;5065737;28;21109;-83
2023/04/22 09:07:26;;;;;;;0.10;0.10;;;20.20;99.90;;;;;;5063789;28;20201;-83
2023/04/22 09:09:56;;;;;;;0.10;0.10;;;19.30;99.90;;;;;;5063170;28;20230;-83
2023/04/22 09:12:22;;;;;;;0.10;0.10;;;19.70;99.90;;;;;;5065971;28;20628;-82
2023/04/22 09:14:47;;;;;;;0.10;0.10;;;20.00;99.90;;;;;;5060510;28;20212;-83
2023/04/22 09:17:18;;;;;;;0.10;0.10;;;19.90;99.90;;;;;;5066289;28;20939;-83
2023/04/22 09:19:44;;;;;;;0.10;0.10;;;20.10;99.90;;;;;;5063619;28;20264;-83
2023/04/22 09:22:13;;;;;;;0.10;0.10;;;20.10;99.90;;;;;;5064501;28;20209;-83
2023/04/22 09:24:43;;;;;;;0.10;0.10;;;19.40;99.90;;;;;;5066477;28;20239;-82
2023/04/22 09:27:10;;;;;;;0.10;0.10;;;19.40;99.90;;;;;;5066398;28;20269;-81
2023/04/22 09:29:35;;;;;;;0.10;0.10;;;20.00;99.90;;;;;;5064416;28;20256;-82
2023/04/22 09:32:09;;;;;;;0.10;0.10;;;20.30;99.90;;;;;;5060657;28;20654;-82
2023/04/22 09:34:53;;;;;;;0.10;0.10;;;20.30;99.90;;;;;;5065775;28;20561;-83
2023/04/22 09:37:28;;;;;;;0.10;0.10;;;20.70;99.90;;;;;;5063730;28;20713;-82
2023/04/22 09:39:54;;;;;;;0.10;0.10;;;20.50;99.90;;;;;;5064221;28;20183;-82
2023/04/22 09:42:20;;;;;;;0.10;0.10;;;19.90;99.90;;;;;;5060627;28;20193;-82
2023/04/22 09:44:53;;;;;;;0.10;0.10;;;20.40;99.90;;;;;;5064255;28;20272;-83
2023/04/22 09:47:22;;;;;;;0.10;0.10;;;21.00;99.90;;;;;;5058201;28;20288;-83
2023/04/22 09:49:48;;;;;;;0.10;0.10;;;21.60;99.90;;;;;;5061526;28;20276;-82
2023/04/22 09:52:23;;;;;;;0.10;0.10;;;22.00;99.90;;;;;;5060484;28;20177;-83
2023/04/22 09:54:53;;;;;;;0.10;0.10;;;21.80;99.90;;;;;;5062521;28;20275;-83
2023/04/22 09:57:20;;;;;;;0.10;0.10;;;21.80;99.90;;;;;;5059739;28;20258;-83
2023/04/22 09:59:46;;;;;;;0.10;0.10;;;21.10;99.90;;;;;;5060233;28;20185;-81
2023/04/22 10:02:13;;;;;;;0.10;0.10;;;20.60;99.90;;;;;;5064932;28;20529;-83
2023/04/22 10:04:38;;;;;;;0.10;0.10;;;21.30;99.90;;;;;;5058945;28;20172;-83
2023/04/22 10:07:04;;;;;;;0.10;0.10;;;21.90;99.90;;;;;;5061025;28;20224;-82
2023/04/22 10:09:29;;;;;;;0.10;0.10;;;22.20;99.90;;;;;;5060481;28;20196;-83
2023/04/22 10:12:00;;;;;;;0.10;0.10;;;22.50;99.90;;;;;;5056038;28;20185;-81
2023/04/22 10:14:26;;;;;;;0.10;0.10;;;22.30;99.90;;;;;;5063214;28;20192;-83
2023/04/22 10:16:57;;;;;;;0.10;0.10;;;21.80;99.90;;;;;;5063799;28;20216;-83
2023/04/22 10:19:25;;;;;;;0.10;0.10;;;21.80;99.90;;;;;;5053508;28;20243;-82
2023/04/22 10:22:02;;;;;;;0.10;0.10;;;21.80;99.90;;;;;;5061683;28;20201;-82
2023/04/22 10:24:33;;;;;;;0.10;0.10;;;22.20;99.90;;;;;;5062587;28;20234;-83
2023/04/22 10:27:05;;;;;;;0.10;0.10;;;22.70;99.90;;;;;;5061427;28;20205;-83
2023/04/22 10:29:38;;;;;;;0.10;0.10;;;23.00;99.90;;;;;;5061196;28;20315;-80
2023/04/22 10:32:22;;;;;;;0.10;0.10;;;22.80;99.90;;;;;;5059888;28;20216;-82
2023/04/22 10:34:48;;;;;;;0.10;0.10;;;22.50;99.90;;;;;;5060751;28;20681;-82
2023/04/22 10:37:18;;;;;;;0.10;0.10;;;22.10;99.90;;;;;;5063442;28;20242;-82
2023/04/22 10:40:07;;;;;;;0.10;0.10;;;22.30;99.90;;;;;;5061017;28;20216;-81
2023/04/22 10:42:33;;;;;;;14.70;13.77;;;21.90;99.90;;;;;;5063164;28;20281;-82
2023/04/22 10:45:04;;;;;;;0.10;0.10;;;21.70;99.90;;;;;;5055900;28;20207;-82
2023/04/22 10:47:37;;;;;;;0.10;0.10;;;22.20;99.90;;;;;;5059391;28;20205;-80
2023/04/22 10:50:27;;;;;;;0.10;0.10;;;22.70;99.90;;;;;;5056320;28;20184;-82
2023/04/22 10:52:58;;;;;;;0.10;0.10;;;23.00;99.90;;;;;;5060138;28;20173;-82
2023/04/22 10:55:25;;;;;;;0.10;0.10;;;23.00;99.90;;;;;;5056745;28;20184;-81
2023/04/22 10:57:52;;;;;;;0.10;0.10;;;22.80;99.90;;;;;;5060844;28;20318;-82
2023/04/22 11:00:25;;;;;;;0.10;0.10;;;22.80;99.90;;;;;;5060555;28;20181;-84
2023/04/22 11:03:11;;;;;;;0.10;0.10;;;22.80;99.90;;;;;;5062024;28;20197;-81
2023/04/22 11:05:38;;;;;;;0.10;0.10;;;23.10;99.90;;;;;;5056412;28;20236;-81
2023/04/22 11:08:13;;;;;;;0.10;0.10;;;22.70;99.90;;;;;;5061823;28;20185;-82
2023/04/22 11:10:42;;;;;;;0.10;0.10;;;23.00;99.90;;;;;;5061139;28;20233;-81
2023/04/22 11:13:10;;;;;;;0.10;0.10;;;22.90;99.90;;;;;;5077808;28;20186;-82
2023/04/22 11:15:38;;;;;;;0.10;0.10;;;23.00;99.90;;;;;;5056332;28;20699;-81
2023/04/22 11:18:09;;;;;;;0.10;0.10;;;23.20;99.90;;;;;;5061114;28;20271;-82
2023/04/22 11:20:34;;;;;;;0.10;0.10;;;23.40;99.90;;;;;;5061405;28;20215;-83
2023/04/22 11:23:01;;;;;;;0.10;0.10;;;23.60;99.90;;;;;;5055466;28;20181;-82
2023/04/22 11:25:27;;;;;;;0.10;0.10;;;23.80;99.90;;;;;;5057893;28;20209;-81
2023/04/22 11:27:54;;;;;;;0.10;0.10;;;23.40;99.90;;;;;;5061329;28;20568;-83
2023/04/22 11:30:21;;;;;;;0.10;0.10;;;23.60;99.90;;;;;;5059669;28;20223;-82
2023/04/22 11:32:49;;;;;;;1.70;1.70;;;23.70;99.90;;;;;;5060928;28;20706;-82
2023/04/22 11:35:21;;;;;;;0.10;0.10;;;23.70;99.90;;;;;;5060210;28;20197;-82
2023/04/22 11:37:53;;;;;;;0.30;0.30;;;23.40;99.90;;;;;;5057981;28;20200;-82
2023/04/22 11:40:21;;;;;;;0.10;0.10;;;23.90;99.90;;;;;;5057036;28;20704;-82
2023/04/22 11:42:48;;;;;;;0.10;0.10;;;24.20;99.90;;;;;;5058086;28;20721;-82
2023/04/22 11:45:15;;;;;;;0.10;0.10;;;24.30;99.90;;;;;;5057031;28;20177;-84
2023/04/22 11:47:41;;;;;;;0.10;0.10;;;23.90;99.90;;;;;;5064031;28;20267;-83
2023/04/22 11:50:10;;;;;;;0.10;0.10;;;23.50;99.90;;;;;;5060078;28;20230;-84
2023/04/22 11:52:49;;;;;;;0.10;0.10;;;23.80;99.90;;;;;;5066389;28;20271;-83
2023/04/22 11:55:16;;;;;;;0.10;0.10;;;24.10;99.90;;;;;;5065202;28;20669;-84
2023/04/22 11:57:44;;;;;;;0.10;0.10;;;24.40;99.90;;;;;;5067441;28;20185;-83
2023/04/22 12:00:13;;;;;;;0.10;0.10;;;24.40;99.90;;;;;;5066315;28;20181;-84
2023/04/22 12:02:40;;;;;;;0.10;0.10;;;24.70;99.90;;;;;;5064531;28;20205;-83
2023/04/22 12:05:10;;;;;;;0.10;0.10;;;25.00;99.90;;;;;;5062519;28;20978;-84
2023/04/22 12:07:36;;;;;;;0.10;0.10;;;25.10;99.90;;;;;;5067722;28;20193;-84
2023/04/22 12:10:02;;;;;;;0.10;0.10;;;25.10;99.90;;;;;;5067619;28;20199;-84
2023/04/22 12:12:28;;;;;;;0.10;0.10;;;24.80;99.90;;;;;;5066049;28;20186;-84
2023/04/22 12:14:53;;;;;;;0.10;0.10;;;24.50;99.90;;;;;;5060257;28;20189;-84
2023/04/22 12:17:23;;;;;;;0.10;0.10;;;24.10;99.90;;;;;;5067170;28;20243;-84
2023/04/22 12:19:56;;;;;;;0.10;0.10;;;23.90;99.90;;;;;;5065748;28;20192;-84
2023/04/22 12:22:29;;;;;;;0.10;0.10;;;23.80;99.90;;;;;;5057198;28;20200;-83
2023/04/22 12:24:59;;;;;;;0.10;0.10;;;23.60;99.90;;;;;;5060746;28;20189;-83
2023/04/22 12:27:24;;;;;;;0.10;0.10;;;23.80;99.90;;;;;;5064785;28;20197;-84
2023/04/22 12:29:55;;;;;;;0.10;0.10;;;23.70;99.90;;;;;;5061995;28;20188;-84
2023/04/22 12:32:21;;;;;;;0.10;0.10;;;23.70;99.90;;;;;;5065207;28;20199;-83
2023/04/22 12:34:47;;;;;;;0.10;0.10;;;23.50;99.90;;;;;;5059771;28;20191;-84
2023/04/22 12:37:13;;;;;;;0.10;0.10;;;23.40;99.90;;;;;;5065076;28;20204;-84
2023/04/22 12:39:39;;;;;;;0.10;0.10;;;23.40;99.90;;;;;;5065156;28;20252;-83
2023/04/22 12:42:05;;;;;;;0.10;0.10;;;23.40;99.90;;;;;;5063706;28;20201;-84
2023/04/22 12:44:31;;;;;;;0.10;0.10;;;23.40;99.90;;;;;;5063422;28;20556;-83